sensor_id;sensor_type;location;lat;lon;timestamp;pressure;altitude;pressure_sealevel;temperature;humidity
64632;BME280;58358;50.936;0.246;2023-01-31T00:00:34;102179.65;;;-0.54;65.76
64632;BME280;58358;50.936;0.246;2023-01-31T00:02:59;102183.94;;;-2.13;70.32
64632;BME280;58358;50.936;0.246;2023-01-31T00:05:25;102180.11;;;-1.62;69.74
64632;BME280;58358;50.936;0.246;2023-01-31T00:07:50;102174.41;;;0.11;66.61
64632;BME280;58358;50.936;0.246;2023-01-31T00:10:16;102176.02;;;0.22;63.09
64632;BME280;58358;50.936;0.246;2023-01-31T00:12:41;102180.23;;;-0.41;65.98
64632;BME280;58358;50.936;0.246;2023-01-31T00:15:07;102170.13;;;0.55;63.59
64632;BME280;58358;50.936;0.246;2023-01-31T00:17:32;102166.20;;;0.10;64.75
64632;BME280;58358;50.936;0.246;2023-01-31T00:19:58;102159.49;;;-0.59;65.85
64632;BME280;58358;50.936;0.246;2023-01-31T00:22:24;102157.43;;;0.44;64.45
64632;BME280;58358;50.936;0.246;2023-01-31T00:24:49;102158.07;;;-0.37;65.12
64632;BME280;58358;50.936;0.246;2023-01-31T00:27:14;102156.21;;;0.54;63.41
64632;BME280;58358;50.936;0.246;2023-01-31T00:29:40;102160.52;;;-0.49;66.20
64632;BME280;58358;50.936;0.246;2023-01-31T00:32:05;102163.51;;;-1.13;66.35
64632;BME280;58358;50.936;0.246;2023-01-31T00:34:30;102161.87;;;-0.64;66.30
64632;BME280;58358;50.936;0.246;2023-01-31T00:36:56;102159.77;;;0.68;62.71
64632;BME280;58358;50.936;0.246;2023-01-31T00:39:23;102151.11;;;-1.14;67.36
64632;BME280;58358;50.936;0.246;2023-01-31T00:41:47;102145.11;;;0.08;64.84
64632;BME280;58358;50.936;0.246;2023-01-31T00:44:12;102157.59;;;-2.25;74.33
64632;BME280;58358;50.936;0.246;2023-01-31T00:46:38;102158.00;;;-0.27;67.93
64632;BME280;58358;50.936;0.246;2023-01-31T00:49:04;102156.47;;;0.27;65.20
64632;BME280;58358;50.936;0.246;2023-01-31T00:51:30;102158.17;;;0.98;63.07
64632;BME280;58358;50.936;0.246;2023-01-31T00:53:55;102151.43;;;1.53;61.51
64632;BME280;58358;50.936;0.246;2023-01-31T00:56:23;102138.56;;;1.22;61.15
64632;BME280;58358;50.936;0.246;2023-01-31T00:58:46;102131.17;;;0.87;61.95
64632;BME280;58358;50.936;0.246;2023-01-31T01:01:14;102128.39;;;1.49;62.09
64632;BME280;58358;50.936;0.246;2023-01-31T01:03:38;102125.79;;;0.92;61.67
64632;BME280;58358;50.936;0.246;2023-01-31T01:06:02;102117.44;;;1.36;61.65
64632;BME280;58358;50.936;0.246;2023-01-31T01:08:28;102107.44;;;1.86;59.77
64632;BME280;58358;50.936;0.246;2023-01-31T01:10:52;102105.51;;;1.69;59.35
64632;BME280;58358;50.936;0.246;2023-01-31T01:13:17;102121.38;;;1.12;61.52
64632;BME280;58358;50.936;0.246;2023-01-31T01:15:42;102116.99;;;1.55;60.17
64632;BME280;58358;50.936;0.246;2023-01-31T01:18:08;102115.45;;;0.99;60.21
64632;BME280;58358;50.936;0.246;2023-01-31T01:20:34;102116.11;;;0.40;64.81
64632;BME280;58358;50.936;0.246;2023-01-31T01:22:59;102123.66;;;1.29;62.24
64632;BME280;58358;50.936;0.246;2023-01-31T01:25:24;102124.75;;;0.11;64.48
64632;BME280;58358;50.936;0.246;2023-01-31T01:27:49;102128.07;;;0.97;63.00
64632;BME280;58358;50.936;0.246;2023-01-31T01:30:15;102121.11;;;1.32;61.62
64632;BME280;58358;50.936;0.246;2023-01-31T01:32:40;102118.32;;;0.25;65.56
64632;BME280;58358;50.936;0.246;2023-01-31T01:35:06;102116.16;;;1.90;60.27
64632;BME280;58358;50.936;0.246;2023-01-31T01:37:32;102122.79;;;1.82;59.70
64632;BME280;58358;50.936;0.246;2023-01-31T01:39:57;102124.92;;;1.09;60.62
64632;BME280;58358;50.936;0.246;2023-01-31T01:42:25;102123.28;;;0.20;66.02
64632;BME280;58358;50.936;0.246;2023-01-31T01:44:50;102117.78;;;0.93;64.04
64632;BME280;58358;50.936;0.246;2023-01-31T01:47:17;102120.18;;;1.99;60.41
64632;BME280;58358;50.936;0.246;2023-01-31T01:49:38;102126.78;;;1.86;60.20
64632;BME280;58358;50.936;0.246;2023-01-31T01:52:06;102124.53;;;2.46;58.97
64632;BME280;58358;50.936;0.246;2023-01-31T01:54:35;102121.91;;;2.56;58.40
64632;BME280;58358;50.936;0.246;2023-01-31T01:57:00;102115.80;;;2.55;58.89
64632;BME280;58358;50.936;0.246;2023-01-31T01:59:23;102118.95;;;2.36;59.27
64632;BME280;58358;50.936;0.246;2023-01-31T02:01:46;102116.07;;;2.57;58.57
64632;BME280;58358;50.936;0.246;2023-01-31T02:04:15;102107.95;;;1.68;61.92
64632;BME280;58358;50.936;0.246;2023-01-31T02:06:36;102112.03;;;1.22;62.79
64632;BME280;58358;50.936;0.246;2023-01-31T02:09:03;102114.61;;;2.03;60.74
64632;BME280;58358;50.936;0.246;2023-01-31T02:11:29;102113.92;;;2.77;59.83
64632;BME280;58358;50.936;0.246;2023-01-31T02:13:57;102113.15;;;2.12;60.86
64632;BME280;58358;50.936;0.246;2023-01-31T02:16:18;102104.86;;;2.08;60.23
64632;BME280;58358;50.936;0.246;2023-01-31T02:18:43;102102.40;;;2.68;59.07
64632;BME280;58358;50.936;0.246;2023-01-31T02:21:18;102105.17;;;2.59;58.75
64632;BME280;58358;50.936;0.246;2023-01-31T02:23:51;102107.21;;;1.46;62.58
64632;BME280;58358;50.936;0.246;2023-01-31T02:33:23;102091.40;;;2.93;57.65
64632;BME280;58358;50.936;0.246;2023-01-31T02:35:50;102089.61;;;2.70;58.35
64632;BME280;58358;50.936;0.246;2023-01-31T02:38:15;102088.03;;;2.10;60.59
64632;BME280;58358;50.936;0.246;2023-01-31T02:40:44;102092.50;;;2.22;59.94
64632;BME280;58358;50.936;0.246;2023-01-31T02:43:03;102096.52;;;2.01;60.37
64632;BME280;58358;50.936;0.246;2023-01-31T02:45:30;102102.47;;;2.10;60.18
64632;BME280;58358;50.936;0.246;2023-01-31T02:50:20;102095.06;;;0.25;66.49
64632;BME280;58358;50.936;0.246;2023-01-31T02:52:45;102092.24;;;1.85;64.57
64632;BME280;58358;50.936;0.246;2023-01-31T02:55:11;102093.19;;;1.78;63.37
64632;BME280;58358;50.936;0.246;2023-01-31T02:57:30;102092.25;;;2.50;63.49
64632;BME280;58358;50.936;0.246;2023-01-31T02:59:55;102086.44;;;2.27;62.60
64632;BME280;58358;50.936;0.246;2023-01-31T03:02:22;102079.79;;;2.00;63.88
64632;BME280;58358;50.936;0.246;2023-01-31T03:04:46;102075.54;;;1.83;62.88
64632;BME280;58358;50.936;0.246;2023-01-31T03:07:14;102076.66;;;1.92;63.29
64632;BME280;58358;50.936;0.246;2023-01-31T03:09:41;102073.29;;;0.67;65.29
64632;BME280;58358;50.936;0.246;2023-01-31T03:12:20;102071.82;;;1.24;65.99
64632;BME280;58358;50.936;0.246;2023-01-31T03:14:33;102074.52;;;1.07;66.28
64632;BME280;58358;50.936;0.246;2023-01-31T03:16:57;102076.96;;;2.74;62.53
64632;BME280;58358;50.936;0.246;2023-01-31T03:19:25;102077.59;;;2.89;61.95
64632;BME280;58358;50.936;0.246;2023-01-31T03:21:48;102071.93;;;1.73;64.54
64632;BME280;58358;50.936;0.246;2023-01-31T03:24:11;102065.64;;;1.54;66.01
64632;BME280;58358;50.936;0.246;2023-01-31T03:26:36;102070.90;;;2.43;63.25
64632;BME280;58358;50.936;0.246;2023-01-31T03:29:03;102070.11;;;1.48;63.71
64632;BME280;58358;50.936;0.246;2023-01-31T03:31:30;102074.09;;;1.95;65.18
64632;BME280;58358;50.936;0.246;2023-01-31T03:33:55;102072.07;;;2.43;64.77
64632;BME280;58358;50.936;0.246;2023-01-31T03:36:25;102068.50;;;2.87;64.06
64632;BME280;58358;50.936;0.246;2023-01-31T03:38:50;102066.00;;;1.83;66.23
64632;BME280;58358;50.936;0.246;2023-01-31T03:41:14;102060.89;;;0.33;73.73
64632;BME280;58358;50.936;0.246;2023-01-31T03:43:38;102054.66;;;0.09;75.77
64632;BME280;58358;50.936;0.246;2023-01-31T03:46:03;102055.37;;;1.03;72.36
64632;BME280;58358;50.936;0.246;2023-01-31T03:48:29;102052.62;;;2.65;68.13
64632;BME280;58358;50.936;0.246;2023-01-31T03:50:52;102057.88;;;1.52;71.07
64632;BME280;58358;50.936;0.246;2023-01-31T03:53:19;102060.69;;;-0.21;78.02
64632;BME280;58358;50.936;0.246;2023-01-31T03:55:43;102059.49;;;1.98;72.54
64632;BME280;58358;50.936;0.246;2023-01-31T03:58:07;102060.50;;;2.16;72.54
64632;BME280;58358;50.936;0.246;2023-01-31T04:00:34;102055.50;;;1.02;76.81
64632;BME280;58358;50.936;0.246;2023-01-31T04:03:03;102053.21;;;1.57;74.54
64632;BME280;58358;50.936;0.246;2023-01-31T04:05:24;102049.55;;;1.31;73.20
64632;BME280;58358;50.936;0.246;2023-01-31T04:07:47;102047.20;;;1.65;73.11
64632;BME280;58358;50.936;0.246;2023-01-31T04:10:17;102045.88;;;1.03;74.21
64632;BME280;58358;50.936;0.246;2023-01-31T04:12:39;102041.07;;;2.08;69.89
64632;BME280;58358;50.936;0.246;2023-01-31T04:15:07;102042.75;;;2.64;67.69
64632;BME280;58358;50.936;0.246;2023-01-31T04:17:29;102028.95;;;2.81;66.61
64632;BME280;58358;50.936;0.246;2023-01-31T04:19:54;102036.32;;;2.28;67.39
64632;BME280;58358;50.936;0.246;2023-01-31T04:22:20;102031.89;;;3.20;65.52
64632;BME280;58358;50.936;0.246;2023-01-31T04:24:44;102032.30;;;3.32;65.48
64632;BME280;58358;50.936;0.246;2023-01-31T04:27:10;102025.25;;;3.44;64.42
64632;BME280;58358;50.936;0.246;2023-01-31T04:29:35;102023.97;;;4.02;63.61
64632;BME280;58358;50.936;0.246;2023-01-31T04:32:00;102014.79;;;2.42;65.03
64632;BME280;58358;50.936;0.246;2023-01-31T04:34:26;102008.22;;;3.23;64.08
64632;BME280;58358;50.936;0.246;2023-01-31T04:36:51;102006.92;;;3.03;64.67
64632;BME280;58358;50.936;0.246;2023-01-31T04:39:16;102005.20;;;2.81;68.55
64632;BME280;58358;50.936;0.246;2023-01-31T04:41:41;102006.81;;;2.38;68.70
64632;BME280;58358;50.936;0.246;2023-01-31T04:44:06;102004.74;;;2.67;69.20
64632;BME280;58358;50.936;0.246;2023-01-31T04:46:32;102015.99;;;1.90;74.18
64632;BME280;58358;50.936;0.246;2023-01-31T04:48:57;102024.16;;;2.80;71.15
64632;BME280;58358;50.936;0.246;2023-01-31T04:51:22;102011.37;;;3.27;68.24
64632;BME280;58358;50.936;0.246;2023-01-31T04:53:48;102005.89;;;3.00;68.89
64632;BME280;58358;50.936;0.246;2023-01-31T04:56:13;102006.13;;;4.21;66.17
64632;BME280;58358;50.936;0.246;2023-01-31T04:58:39;102004.21;;;2.77;69.20
64632;BME280;58358;50.936;0.246;2023-01-31T05:01:04;102003.75;;;3.03;70.10
64632;BME280;58358;50.936;0.246;2023-01-31T05:03:29;102006.68;;;3.03;70.35
64632;BME280;58358;50.936;0.246;2023-01-31T05:05:54;102010.99;;;3.01;70.16
64632;BME280;58358;50.936;0.246;2023-01-31T05:08:20;102017.50;;;3.43;69.24
64632;BME280;58358;50.936;0.246;2023-01-31T05:10:44;102016.48;;;4.08;67.74
64632;BME280;58358;50.936;0.246;2023-01-31T05:13:10;102014.41;;;4.21;66.75
64632;BME280;58358;50.936;0.246;2023-01-31T05:15:35;102015.18;;;3.53;66.95
64632;BME280;58358;50.936;0.246;2023-01-31T05:18:01;102009.07;;;4.37;65.36
64632;BME280;58358;50.936;0.246;2023-01-31T05:20:27;102007.29;;;2.97;67.70
64632;BME280;58358;50.936;0.246;2023-01-31T05:22:52;102004.08;;;3.12;69.04
64632;BME280;58358;50.936;0.246;2023-01-31T05:25:18;102007.32;;;3.67;68.59
64632;BME280;58358;50.936;0.246;2023-01-31T05:27:43;102006.72;;;3.89;68.48
64632;BME280;58358;50.936;0.246;2023-01-31T05:30:10;102002.20;;;3.65;72.13
64632;BME280;58358;50.936;0.246;2023-01-31T05:32:35;102005.06;;;2.58;73.18
64632;BME280;58358;50.936;0.246;2023-01-31T05:34:59;102004.07;;;4.16;69.62
64632;BME280;58358;50.936;0.246;2023-01-31T05:37:24;102004.72;;;3.79;69.12
64632;BME280;58358;50.936;0.246;2023-01-31T05:39:50;101999.78;;;4.01;68.69
64632;BME280;58358;50.936;0.246;2023-01-31T05:42:16;101997.48;;;4.23;67.30
64632;BME280;58358;50.936;0.246;2023-01-31T05:44:41;101995.09;;;4.44;68.71
64632;BME280;58358;50.936;0.246;2023-01-31T05:47:07;101991.91;;;4.29;67.61
64632;BME280;58358;50.936;0.246;2023-01-31T05:49:33;101990.80;;;4.61;66.58
64632;BME280;58358;50.936;0.246;2023-01-31T05:51:58;101992.79;;;4.48;68.37
64632;BME280;58358;50.936;0.246;2023-01-31T05:54:24;102000.17;;;3.66;69.16
64632;BME280;58358;50.936;0.246;2023-01-31T05:56:48;101994.61;;;4.29;68.69
64632;BME280;58358;50.936;0.246;2023-01-31T05:59:14;101993.71;;;4.67;67.22
64632;BME280;58358;50.936;0.246;2023-01-31T06:01:39;101995.19;;;5.16;65.13
64632;BME280;58358;50.936;0.246;2023-01-31T06:04:05;101990.19;;;4.72;66.52
64632;BME280;58358;50.936;0.246;2023-01-31T06:06:30;101993.11;;;5.27;64.81
64632;BME280;58358;50.936;0.246;2023-01-31T06:08:55;101990.50;;;5.14;65.10
64632;BME280;58358;50.936;0.246;2023-01-31T06:11:21;101994.61;;;3.95;69.46
64632;BME280;58358;50.936;0.246;2023-01-31T06:13:46;101994.09;;;5.25;64.79
64632;BME280;58358;50.936;0.246;2023-01-31T06:16:12;101981.42;;;4.44;68.38
64632;BME280;58358;50.936;0.246;2023-01-31T06:18:37;101993.71;;;4.46;68.95
64632;BME280;58358;50.936;0.246;2023-01-31T06:21:03;101984.34;;;4.82;66.57
64632;BME280;58358;50.936;0.246;2023-01-31T06:23:28;101982.71;;;5.25;65.61
64632;BME280;58358;50.936;0.246;2023-01-31T06:25:54;101979.87;;;4.55;67.59
64632;BME280;58358;50.936;0.246;2023-01-31T06:28:20;101979.84;;;3.88;71.50
64632;BME280;58358;50.936;0.246;2023-01-31T06:30:47;101975.23;;;5.13;65.99
64632;BME280;58358;50.936;0.246;2023-01-31T06:33:11;101965.40;;;4.82;67.23
64632;BME280;58358;50.936;0.246;2023-01-31T06:35:36;101961.42;;;4.15;72.65
64632;BME280;58358;50.936;0.246;2023-01-31T06:38:02;101958.90;;;4.60;71.32
64632;BME280;58358;50.936;0.246;2023-01-31T06:40:28;101959.67;;;4.78;68.27
64632;BME280;58358;50.936;0.246;2023-01-31T06:42:53;101969.02;;;5.25;66.63
64632;BME280;58358;50.936;0.246;2023-01-31T06:45:19;101964.99;;;5.52;65.82
64632;BME280;58358;50.936;0.246;2023-01-31T06:47:44;101965.63;;;5.15;66.13
64632;BME280;58358;50.936;0.246;2023-01-31T06:50:11;101971.37;;;5.08;67.02
64632;BME280;58358;50.936;0.246;2023-01-31T06:52:35;101981.62;;;5.05;67.78
64632;BME280;58358;50.936;0.246;2023-01-31T06:55:01;101987.56;;;4.33;70.85
64632;BME280;58358;50.936;0.246;2023-01-31T06:57:27;101987.11;;;3.44;74.00
64632;BME280;58358;50.936;0.246;2023-01-31T06:59:53;101982.89;;;3.79;73.43
64632;BME280;58358;50.936;0.246;2023-01-31T07:02:18;101977.95;;;3.23;73.48
64632;BME280;58358;50.936;0.246;2023-01-31T07:04:44;101976.57;;;3.13;76.52
64632;BME280;58358;50.936;0.246;2023-01-31T07:07:08;101972.90;;;4.26;72.41
64632;BME280;58358;50.936;0.246;2023-01-31T07:09:34;101975.00;;;4.91;69.83
64632;BME280;58358;50.936;0.246;2023-01-31T07:12:01;101976.51;;;4.20;72.07
64632;BME280;58358;50.936;0.246;2023-01-31T07:14:25;101979.73;;;3.73;74.87
64632;BME280;58358;50.936;0.246;2023-01-31T07:16:51;101982.80;;;3.57;77.10
64632;BME280;58358;50.936;0.246;2023-01-31T07:19:16;101988.59;;;2.38;81.50
64632;BME280;58358;50.936;0.246;2023-01-31T07:21:42;101995.72;;;2.72;82.64
64632;BME280;58358;50.936;0.246;2023-01-31T07:24:08;101978.14;;;3.33;80.20
64632;BME280;58358;50.936;0.246;2023-01-31T07:26:33;101976.35;;;1.88;87.04
64632;BME280;58358;50.936;0.246;2023-01-31T07:28:59;101965.83;;;2.89;80.79
64632;BME280;58358;50.936;0.246;2023-01-31T07:31:25;101965.13;;;2.85;82.19
64632;BME280;58358;50.936;0.246;2023-01-31T07:33:50;101966.87;;;2.49;81.31
64632;BME280;58358;50.936;0.246;2023-01-31T07:36:18;101976.30;;;2.83;79.15
64632;BME280;58358;50.936;0.246;2023-01-31T07:38:42;101973.84;;;2.64;81.59
64632;BME280;58358;50.936;0.246;2023-01-31T07:41:08;101983.97;;;2.24;82.63
64632;BME280;58358;50.936;0.246;2023-01-31T07:43:34;101980.97;;;3.17;78.29
64632;BME280;58358;50.936;0.246;2023-01-31T07:45:58;101987.08;;;3.11;77.87
64632;BME280;58358;50.936;0.246;2023-01-31T07:48:24;101983.60;;;3.49;77.56
64632;BME280;58358;50.936;0.246;2023-01-31T07:50:50;101979.13;;;4.51;73.81
64632;BME280;58358;50.936;0.246;2023-01-31T07:53:15;101977.53;;;4.17;75.03
64632;BME280;58358;50.936;0.246;2023-01-31T07:55:40;101967.88;;;3.96;72.40
64632;BME280;58358;50.936;0.246;2023-01-31T07:58:06;101959.41;;;3.64;75.26
64632;BME280;58358;50.936;0.246;2023-01-31T08:00:32;101957.58;;;4.01;73.47
64632;BME280;58358;50.936;0.246;2023-01-31T08:02:56;101958.15;;;3.73;74.25
64632;BME280;58358;50.936;0.246;2023-01-31T08:05:23;101969.98;;;4.01;73.56
64632;BME280;58358;50.936;0.246;2023-01-31T08:07:48;101972.47;;;3.04;76.18
64632;BME280;58358;50.936;0.246;2023-01-31T08:10:13;101981.05;;;4.21;74.55
64632;BME280;58358;50.936;0.246;2023-01-31T08:12:38;101982.25;;;4.19;72.69
64632;BME280;58358;50.936;0.246;2023-01-31T08:15:05;101987.98;;;3.65;74.85
64632;BME280;58358;50.936;0.246;2023-01-31T08:17:31;101986.75;;;4.00;74.04
64632;BME280;58358;50.936;0.246;2023-01-31T08:19:55;101990.00;;;3.62;76.86
64632;BME280;58358;50.936;0.246;2023-01-31T08:22:21;101989.27;;;4.08;74.90
64632;BME280;58358;50.936;0.246;2023-01-31T08:24:46;101984.38;;;2.95;80.00
64632;BME280;58358;50.936;0.246;2023-01-31T08:27:12;101970.69;;;3.43;78.99
64632;BME280;58358;50.936;0.246;2023-01-31T08:29:38;101958.30;;;4.30;75.88
64632;BME280;58358;50.936;0.246;2023-01-31T08:32:05;101961.47;;;4.24;75.84
64632;BME280;58358;50.936;0.246;2023-01-31T08:34:28;101961.15;;;4.07;77.06
64632;BME280;58358;50.936;0.246;2023-01-31T08:36:54;101956.44;;;3.13;79.14
64632;BME280;58358;50.936;0.246;2023-01-31T08:39:19;101956.38;;;4.89;73.95
64632;BME280;58358;50.936;0.246;2023-01-31T08:41:44;101956.56;;;4.06;72.88
64632;BME280;58358;50.936;0.246;2023-01-31T08:44:11;101952.95;;;5.06;71.70
64632;BME280;58358;50.936;0.246;2023-01-31T08:46:36;101950.77;;;4.95;71.71
64632;BME280;58358;50.936;0.246;2023-01-31T08:49:04;101962.27;;;5.78;69.66
64632;BME280;58358;50.936;0.246;2023-01-31T08:51:27;101962.67;;;5.35;71.21
64632;BME280;58358;50.936;0.246;2023-01-31T08:53:53;101967.38;;;3.74;77.28
64632;BME280;58358;50.936;0.246;2023-01-31T08:56:19;101969.30;;;3.98;77.97
64632;BME280;58358;50.936;0.246;2023-01-31T08:58:44;101976.29;;;3.03;83.50
64632;BME280;58358;50.936;0.246;2023-01-31T09:01:11;101979.16;;;3.87;82.14
64632;BME280;58358;50.936;0.246;2023-01-31T09:03:34;101971.08;;;4.37;79.78
64632;BME280;58358;50.936;0.246;2023-01-31T09:06:00;101982.04;;;4.35;79.94
64632;BME280;58358;50.936;0.246;2023-01-31T09:08:25;101978.03;;;4.96;78.63
64632;BME280;58358;50.936;0.246;2023-01-31T09:10:53;101976.09;;;3.84;81.01
64632;BME280;58358;50.936;0.246;2023-01-31T09:13:16;101974.56;;;4.56;80.47
64632;BME280;58358;50.936;0.246;2023-01-31T09:15:42;101974.14;;;5.31;76.80
64632;BME280;58358;50.936;0.246;2023-01-31T09:18:07;101976.55;;;3.95;83.38
64632;BME280;58358;50.936;0.246;2023-01-31T09:20:32;101970.01;;;4.38;82.35
64632;BME280;58358;50.936;0.246;2023-01-31T09:22:58;101959.39;;;5.07;81.79
64632;BME280;58358;50.936;0.246;2023-01-31T09:25:24;101954.31;;;3.84;83.56
64632;BME280;58358;50.936;0.246;2023-01-31T09:27:52;101950.00;;;4.37;81.62
64632;BME280;58358;50.936;0.246;2023-01-31T09:30:16;101949.01;;;4.32;83.29
64632;BME280;58358;50.936;0.246;2023-01-31T09:32:41;101941.34;;;4.34;81.49
64632;BME280;58358;50.936;0.246;2023-01-31T09:35:07;101947.17;;;4.69;81.26
64632;BME280;58358;50.936;0.246;2023-01-31T09:37:33;101954.23;;;4.62;81.79
64632;BME280;58358;50.936;0.246;2023-01-31T09:39:58;101959.82;;;4.72;82.26
64632;BME280;58358;50.936;0.246;2023-01-31T09:42:30;101965.78;;;3.62;85.31
64632;BME280;58358;50.936;0.246;2023-01-31T09:45:01;101953.69;;;4.52;87.22
64632;BME280;58358;50.936;0.246;2023-01-31T09:47:20;101949.72;;;4.02;88.36
64632;BME280;58358;50.936;0.246;2023-01-31T09:49:47;101952.14;;;4.05;89.35
64632;BME280;58358;50.936;0.246;2023-01-31T09:52:09;101947.06;;;4.49;87.41
64632;BME280;58358;50.936;0.246;2023-01-31T09:54:35;101938.41;;;4.16;90.18
64632;BME280;58358;50.936;0.246;2023-01-31T09:57:06;101922.11;;;4.67;87.36
64632;BME280;58358;50.936;0.246;2023-01-31T09:59:32;101934.21;;;4.07;89.82
64632;BME280;58358;50.936;0.246;2023-01-31T10:01:57;101938.59;;;4.09;91.59
64632;BME280;58358;50.936;0.246;2023-01-31T10:04:30;101933.05;;;4.42;89.61
64632;BME280;58358;50.936;0.246;2023-01-31T10:06:48;101938.28;;;4.36;91.39
64632;BME280;58358;50.936;0.246;2023-01-31T10:09:14;101936.18;;;4.52;89.27
64632;BME280;58358;50.936;0.246;2023-01-31T10:11:37;101932.77;;;4.70;89.11
64632;BME280;58358;50.936;0.246;2023-01-31T10:14:03;101935.98;;;5.36;87.64
64632;BME280;58358;50.936;0.246;2023-01-31T10:16:30;101934.67;;;5.02;85.40
64632;BME280;58358;50.936;0.246;2023-01-31T10:18:56;101942.43;;;5.26;87.04
64632;BME280;58358;50.936;0.246;2023-01-31T10:21:19;101953.72;;;4.43;87.87
64632;BME280;58358;50.936;0.246;2023-01-31T10:23:45;101933.24;;;5.11;89.17
64632;BME280;58358;50.936;0.246;2023-01-31T10:26:12;101938.47;;;5.28;86.51
64632;BME280;58358;50.936;0.246;2023-01-31T10:28:37;101938.57;;;5.46;85.97
64632;BME280;58358;50.936;0.246;2023-01-31T10:31:06;101944.54;;;5.79;85.07
64632;BME280;58358;50.936;0.246;2023-01-31T10:33:33;101949.95;;;5.75;83.59
64632;BME280;58358;50.936;0.246;2023-01-31T10:35:56;101949.92;;;6.05;84.17
64632;BME280;58358;50.936;0.246;2023-01-31T10:38:20;101957.43;;;5.24;85.06
64632;BME280;58358;50.936;0.246;2023-01-31T10:40:49;101959.17;;;5.35;86.69
64632;BME280;58358;50.936;0.246;2023-01-31T10:43:14;101954.03;;;5.72;86.12
64632;BME280;58358;50.936;0.246;2023-01-31T10:45:34;101951.64;;;6.02;86.55
64632;BME280;58358;50.936;0.246;2023-01-31T10:48:11;101945.03;;;5.20;86.94
64632;BME280;58358;50.936;0.246;2023-01-31T10:50:31;101940.64;;;5.00;87.63
64632;BME280;58358;50.936;0.246;2023-01-31T10:53:03;101943.98;;;5.61;87.69
64632;BME280;58358;50.936;0.246;2023-01-31T10:55:28;101954.13;;;5.55;87.95
64632;BME280;58358;50.936;0.246;2023-01-31T10:57:43;101953.84;;;5.70;88.16
64632;BME280;58358;50.936;0.246;2023-01-31T11:00:13;101954.93;;;5.28;91.72
64632;BME280;58358;50.936;0.246;2023-01-31T11:02:33;101946.99;;;4.95;93.14
64632;BME280;58358;50.936;0.246;2023-01-31T11:04:59;101946.64;;;5.06;92.22
64632;BME280;58358;50.936;0.246;2023-01-31T11:07:29;101952.45;;;4.50;95.06
64632;BME280;58358;50.936;0.246;2023-01-31T11:09:51;101963.17;;;4.62;97.40
64632;BME280;58358;50.936;0.246;2023-01-31T11:12:15;101960.14;;;4.36;98.93
64632;BME280;58358;50.936;0.246;2023-01-31T11:14:41;101957.23;;;4.83;96.76
64632;BME280;58358;50.936;0.246;2023-01-31T11:17:12;101966.58;;;4.98;94.14
64632;BME280;58358;50.936;0.246;2023-01-31T11:19:36;101952.48;;;5.35;93.17
64632;BME280;58358;50.936;0.246;2023-01-31T11:21:59;101947.96;;;5.12;94.56
64632;BME280;58358;50.936;0.246;2023-01-31T11:24:26;101947.78;;;4.41;95.39
64632;BME280;58358;50.936;0.246;2023-01-31T11:26:52;101943.09;;;4.81;95.77
64632;BME280;58358;50.936;0.246;2023-01-31T11:29:17;101938.06;;;4.60;97.95
64632;BME280;58358;50.936;0.246;2023-01-31T11:31:42;101932.10;;;4.84;97.04
64632;BME280;58358;50.936;0.246;2023-01-31T11:34:18;101925.43;;;5.82;92.56
64632;BME280;58358;50.936;0.246;2023-01-31T11:36:32;101917.96;;;6.17;91.09
64632;BME280;58358;50.936;0.246;2023-01-31T11:38:57;101920.03;;;6.01;92.26
64632;BME280;58358;50.936;0.246;2023-01-31T11:41:29;101914.76;;;6.01;91.16
64632;BME280;58358;50.936;0.246;2023-01-31T11:43:47;101906.20;;;6.38;90.21
64632;BME280;58358;50.936;0.246;2023-01-31T11:46:13;101913.06;;;5.76;92.35
64632;BME280;58358;50.936;0.246;2023-01-31T11:48:41;101905.15;;;5.75;92.00
64632;BME280;58358;50.936;0.246;2023-01-31T11:51:07;101905.66;;;6.22;91.63
64632;BME280;58358;50.936;0.246;2023-01-31T11:53:36;101899.82;;;5.27;93.09
64632;BME280;58358;50.936;0.246;2023-01-31T11:56:00;101893.54;;;6.02;91.73
64632;BME280;58358;50.936;0.246;2023-01-31T11:58:24;101889.59;;;6.92;89.12
64632;BME280;58358;50.936;0.246;2023-01-31T12:00:53;101884.45;;;6.12;91.29
64632;BME280;58358;50.936;0.246;2023-01-31T12:03:14;101885.50;;;6.32;91.62
64632;BME280;58358;50.936;0.246;2023-01-31T12:05:41;101884.05;;;6.66;89.95
64632;BME280;58358;50.936;0.246;2023-01-31T12:08:04;101874.44;;;6.78;88.26
64632;BME280;58358;50.936;0.246;2023-01-31T12:10:34;101875.30;;;6.27;90.08
64632;BME280;58358;50.936;0.246;2023-01-31T12:12:58;101877.68;;;6.05;93.13
64632;BME280;58358;50.936;0.246;2023-01-31T12:15:21;101864.69;;;6.46;90.09
64632;BME280;58358;50.936;0.246;2023-01-31T12:17:48;101872.64;;;6.22;90.47
64632;BME280;58358;50.936;0.246;2023-01-31T12:20:21;101864.68;;;6.29;90.88
64632;BME280;58358;50.936;0.246;2023-01-31T12:22:43;101862.63;;;6.71;89.48
64632;BME280;58358;50.936;0.246;2023-01-31T12:25:11;101866.00;;;6.58;91.73
64632;BME280;58358;50.936;0.246;2023-01-31T12:27:41;101869.18;;;5.46;93.92
64632;BME280;58358;50.936;0.246;2023-01-31T12:32:31;101849.20;;;6.18;92.64
64632;BME280;58358;50.936;0.246;2023-01-31T12:35:01;101837.52;;;6.22;91.81
64632;BME280;58358;50.936;0.246;2023-01-31T12:37:24;101837.94;;;6.92;90.04
64632;BME280;58358;50.936;0.246;2023-01-31T12:39:52;101836.68;;;5.85;94.20
64632;BME280;58358;50.936;0.246;2023-01-31T12:42:17;101828.20;;;5.97;93.33
64632;BME280;58358;50.936;0.246;2023-01-31T12:44:42;101829.55;;;6.26;93.67
64632;BME280;58358;50.936;0.246;2023-01-31T12:47:07;101834.89;;;6.29;92.23
64632;BME280;58358;50.936;0.246;2023-01-31T12:51:52;101823.46;;;6.71;90.77
64632;BME280;58358;50.936;0.246;2023-01-31T12:54:29;101828.11;;;6.48;93.27
64632;BME280;58358;50.936;0.246;2023-01-31T12:56:51;101819.82;;;6.50;93.08
64632;BME280;58358;50.936;0.246;2023-01-31T12:59:13;101820.81;;;6.40;93.84
64632;BME280;58358;50.936;0.246;2023-01-31T13:01:35;101817.91;;;5.91;96.19
64632;BME280;58358;50.936;0.246;2023-01-31T13:04:10;101815.27;;;6.11;96.27